Time;durP1;ratioP1;P1;durP2;ratioP2;P2;SDS_P1;SDS_P2;PMS_P1;PMS_P2;Temp;Humidity;BMP_temperature;BMP_pressure;BME280_temperature;BME280_humidity;BME280_pressure;Samples;Min_cycle;Max_cycle;Signal;HPM_P1;HPM_P2
2022/04/13 00:01:55;;;;;;;12.50;5.07;;;;;;;5.14;50.34;100686.95;123640;1099;104298;-79
2022/04/13 00:04:26;;;;;;;9.47;4.20;;;;;;;5.12;51.31;100688.54;123612;1097;104264;-78
2022/04/13 00:06:59;;;;;;;10.83;4.40;;;;;;;5.13;51.18;100685.14;123422;1099;104280;-78
2022/04/13 00:09:33;;;;;;;12.30;4.90;;;;;;;5.12;51.65;100695.45;123451;1098;104316;-79
2022/04/13 00:12:05;;;;;;;13.40;4.92;;;;;;;5.12;51.50;100687.66;123379;1099;104245;-78
2022/04/13 00:14:36;;;;;;;13.17;4.70;;;;;;;5.11;51.65;100691.05;123469;1099;104755;-79
2022/04/13 00:17:09;;;;;;;12.93;4.40;;;;;;;5.09;51.25;100685.75;123415;1098;104840;-79
2022/04/13 00:19:42;;;;;;;14.98;4.87;;;;;;;5.06;51.79;100688.17;123494;1099;104338;-79
2022/04/13 00:22:15;;;;;;;11.90;4.63;;;;;;;5.05;51.53;100694.20;123523;1097;104236;-77
2022/04/13 00:24:48;;;;;;;16.07;6.17;;;;;;;5.03;51.19;100694.10;123369;1099;104261;-78
2022/04/13 00:27:19;;;;;;;12.83;4.67;;;;;;;5.04;52.17;100684.59;123401;1098;104425;-78
2022/04/13 00:29:50;;;;;;;10.17;4.70;;;;;;;5.03;51.54;100693.19;123482;1099;104338;-78
2022/04/13 00:32:22;;;;;;;13.43;4.87;;;;;;;5.01;51.19;100689.60;123529;1097;104287;-78
2022/04/13 00:34:54;;;;;;;10.43;4.83;;;;;;;4.99;51.69;100684.30;123402;1099;104683;-79
2022/04/13 00:37:27;;;;;;;10.30;4.70;;;;;;;4.98;51.75;100682.50;123401;1099;104438;-78
2022/04/13 00:40:00;;;;;;;9.60;4.50;;;;;;;4.97;51.57;100680.73;123415;1099;104318;-79
2022/04/13 00:42:32;;;;;;;9.33;4.83;;;;;;;4.97;52.09;100679.80;123492;1099;104351;-78
2022/04/13 00:45:04;;;;;;;13.97;5.00;;;;;;;4.95;52.82;100684.02;123458;1099;104335;-78
2022/04/13 00:47:41;;;;;;;10.03;4.70;;;;;;;4.94;52.15;100682.22;123387;1099;104351;-79
2022/04/13 00:50:14;;;;;;;11.47;4.50;;;;;;;4.93;52.35;100677.84;123433;1099;104435;-78
2022/04/13 00:52:48;;;;;;;16.33;5.10;;;;;;;4.91;52.38;100676.83;123395;1098;104319;-79
2022/04/13 00:55:19;;;;;;;;;;;;;;;4.87;52.85;100675.75;123460;1099;104280;-78
2022/04/13 00:57:53;;;;;;;17.80;5.60;;;;;;;4.86;51.42;100671.34;123467;1098;104239;-79
2022/04/13 01:00:25;;;;;;;10.77;4.63;;;;;;;4.85;51.93;100677.37;123441;1097;104638;-79
2022/04/13 01:02:58;;;;;;;11.93;4.63;;;;;;;4.83;52.25;100668.55;123479;1099;104245;-78
2022/04/13 01:05:31;;;;;;;10.60;4.60;;;;;;;4.81;52.40;100672.77;123472;1098;104216;-79
2022/04/13 01:08:03;;;;;;;11.90;4.60;;;;;;;4.80;52.26;100663.17;123606;1099;104366;-79
2022/04/13 01:10:37;;;;;;;14.60;5.40;;;;;;;4.78;52.06;100659.59;123640;1099;104462;-78
2022/04/13 01:13:09;;;;;;;11.60;4.80;;;;;;;4.76;51.89;100659.49;123628;1099;105175;-79
2022/04/13 01:15:40;;;;;;;15.40;5.20;;;;;;;4.75;52.23;100651.59;123674;1099;104239;-79
2022/04/13 01:18:13;;;;;;;11.93;4.67;;;;;;;4.75;51.92;100656.80;123422;1099;104303;-78
2022/04/13 01:20:56;;;;;;;13.88;5.58;;;;;;;4.74;52.58;100649.83;123401;1099;104217;-79
2022/04/13 01:23:28;;;;;;;11.20;4.40;;;;;;;4.73;52.70;100655.81;123545;1099;104310;-78
2022/04/13 01:25:59;;;;;;;14.43;5.00;;;;;;;4.74;52.06;100652.42;123409;1099;104440;-78
2022/04/13 01:28:32;;;;;;;12.10;4.70;;;;;;;4.74;52.85;100642.03;123398;1099;104287;-77
2022/04/13 01:31:04;;;;;;;11.03;4.60;;;;;;;4.74;52.71;100645.52;123421;1099;104319;-77
2022/04/13 01:33:38;;;;;;;10.03;4.80;;;;;;;4.76;53.06;100645.61;123391;1098;104233;-79
2022/04/13 01:36:11;;;;;;;12.03;5.10;;;;;;;4.75;52.45;100644.69;123469;1099;104341;-78
2022/04/13 01:38:48;;;;;;;13.47;5.03;;;;;;;4.75;52.43;100646.40;123431;1099;104310;-79
2022/04/13 01:41:20;;;;;;;13.20;5.20;;;;;;;4.75;52.83;100654.20;123398;1098;104321;-77
2022/04/13 01:44:00;;;;;;;13.83;5.00;;;;;;;4.73;52.99;100643.70;123483;1099;104379;-79
2022/04/13 01:46:32;;;;;;;10.95;4.80;;;;;;;4.73;52.36;100654.11;123491;1099;104264;-79
2022/04/13 01:49:04;;;;;;;15.70;5.57;;;;;;;4.69;52.51;100641.74;123471;1098;104239;-79
2022/04/13 01:51:35;;;;;;;13.93;5.20;;;;;;;4.68;52.77;100640.82;123405;1099;104450;-78
2022/04/13 01:54:06;;;;;;;11.87;5.20;;;;;;;4.66;52.40;100645.04;123425;1098;104418;-78
2022/04/13 01:56:38;;;;;;;15.53;5.33;;;;;;;4.67;53.28;100638.13;123544;1099;104290;-79
2022/04/13 01:59:09;;;;;;;14.47;5.00;;;;;;;4.66;52.43;100636.36;123473;1099;104714;-78
2022/04/13 02:01:47;;;;;;;14.73;4.93;;;;;;;4.66;52.09;100637.24;123526;1099;104219;-79
2022/04/13 02:04:22;;;;;;;14.17;5.03;;;;;;;4.66;52.98;100637.24;123425;1099;104379;-79
2022/04/13 02:06:55;;;;;;;14.53;6.03;;;;;;;4.67;52.92;100638.13;123480;1099;104361;-79
2022/04/13 02:09:26;;;;;;;11.77;4.93;;;;;;;4.67;52.94;100630.33;123487;1099;104293;-79
2022/04/13 02:11:57;;;;;;;17.45;5.45;;;;;;;4.68;53.23;100633.02;123454;1099;104294;-79
2022/04/13 02:14:29;;;;;;;12.07;5.20;;;;;;;4.70;53.01;100632.23;123485;1099;104265;-79
2022/04/13 02:17:00;;;;;;;13.77;5.10;;;;;;;4.70;52.44;100630.52;123486;1099;104173;-78
2022/04/13 02:19:32;;;;;;;15.00;5.33;;;;;;;4.72;53.04;100622.81;123484;1099;104701;-79
2022/04/13 02:22:03;;;;;;;14.53;5.67;;;;;;;4.74;53.63;100624.72;123412;1098;104383;-79
2022/04/13 02:24:35;;;;;;;15.77;5.27;;;;;;;4.77;53.55;100618.78;123435;1099;104716;-78
2022/04/13 02:27:09;;;;;;;13.17;5.13;;;;;;;4.78;53.42;100621.47;123525;1099;104265;-78
2022/04/13 02:29:44;;;;;;;14.17;5.00;;;;;;;4.82;53.79;100619.98;123384;1097;104280;-79
2022/04/13 02:32:15;;;;;;;19.07;5.43;;;;;;;4.84;53.71;100616.65;123375;1098;104335;-79
2022/04/13 02:34:48;;;;;;;13.20;5.50;;;;;;;4.88;53.87;100619.44;123487;1099;104265;-77
2022/04/13 02:37:20;;;;;;;13.70;4.85;;;;;;;4.90;53.48;100618.73;123388;1099;104300;-79
2022/04/13 02:39:51;;;;;;;12.87;5.07;;;;;;;4.92;53.89;100622.31;123548;1099;104264;-78
2022/04/13 02:42:22;;;;;;;12.67;5.00;;;;;;;4.95;53.45;100606.01;123437;1099;104322;-78
2022/04/13 02:44:54;;;;;;;16.00;5.23;;;;;;;4.98;53.08;100609.67;123407;1098;104324;-76
2022/04/13 02:47:26;;;;;;;13.37;4.80;;;;;;;5.01;53.67;100612.47;123423;1099;104355;-76
2022/04/13 02:50:00;;;;;;;13.77;4.73;;;;;;;5.02;53.62;100609.07;123393;1099;104368;-78
2022/04/13 02:52:29;;;;;;;;;;;;;;;5.03;53.65;100600.47;123473;1099;104265;-78
2022/04/13 02:55:01;;;;;;;14.27;5.13;;;;;;;5.03;53.59;100608.27;123514;1099;104354;-78
2022/04/13 02:57:32;;;;;;;17.13;5.60;;;;;;;5.04;53.49;100607.45;123476;1099;104262;-77
2022/04/13 03:00:04;;;;;;;13.10;4.73;;;;;;;5.05;53.57;100603.16;123534;1099;104315;-78
2022/04/13 03:02:45;;;;;;;12.68;4.92;;;;;;;5.06;53.58;100611.85;123520;1096;104287;-78
2022/04/13 03:05:17;;;;;;;15.27;5.00;;;;;;;5.07;52.98;100601.54;123453;1097;104264;-77
2022/04/13 03:07:55;;;;;;;14.00;5.17;;;;;;;5.07;53.43;100608.45;123483;1099;104852;-78
2022/04/13 03:10:27;;;;;;;12.70;5.40;;;;;;;5.09;53.29;100593.83;123360;1098;104374;-79
2022/04/13 03:12:59;;;;;;;19.57;5.70;;;;;;;5.08;53.42;100599.83;123430;1099;104345;-79
2022/04/13 03:15:31;;;;;;;15.00;5.20;;;;;;;5.07;53.47;100591.14;123452;1099;104309;-78
2022/04/13 03:18:05;;;;;;;12.63;4.93;;;;;;;5.05;54.06;100608.36;123417;1099;104239;-78
2022/04/13 03:20:46;;;;;;;15.40;5.87;;;;;;;5.02;53.20;100595.17;123415;1099;104296;-78
2022/04/13 03:23:18;;;;;;;11.60;4.80;;;;;;;5.00;53.32;100597.69;123323;1099;104264;-78
2022/04/13 03:25:51;;;;;;;18.07;5.10;;;;;;;5.00;54.03;100599.37;123447;1099;104473;-79
2022/04/13 03:28:23;;;;;;;11.40;4.97;;;;;;;4.98;53.60;100594.08;123468;1098;104313;-78
2022/04/13 03:30:56;;;;;;;11.33;4.90;;;;;;;4.96;53.58;100603.50;123448;1099;104650;-78
2022/04/13 03:33:28;;;;;;;12.03;5.20;;;;;;;4.96;53.93;100602.61;123393;1099;104307;-78
2022/04/13 03:36:01;;;;;;;14.07;5.77;;;;;;;4.94;53.92;100584.32;123502;1097;104191;-79
2022/04/13 03:38:35;;;;;;;17.27;5.37;;;;;;;4.92;53.63;100588.51;123498;1099;104370;-79
2022/04/13 03:41:07;;;;;;;12.80;4.95;;;;;;;4.92;53.60;100595.42;123555;1099;104677;-78
2022/04/13 03:43:38;;;;;;;11.27;4.90;;;;;;;4.92;54.28;100596.31;123483;1099;104420;-78
2022/04/13 03:46:10;;;;;;;17.60;5.43;;;;;;;4.94;54.08;100580.80;123635;1099;104323;-78
2022/04/13 03:48:44;;;;;;;13.90;4.77;;;;;;;4.93;53.64;100592.03;123755;1099;104290;-79
2022/04/13 03:51:15;;;;;;;13.03;5.10;;;;;;;4.92;53.86;100591.11;123534;1097;104239;-79
2022/04/13 03:53:47;;;;;;;16.03;5.23;;;;;;;4.92;54.40;100606.71;123769;1099;104381;-80
2022/04/13 03:56:20;;;;;;;14.23;5.40;;;;;;;4.94;54.49;100599.00;124303;1099;104422;-79
2022/04/13 03:58:53;;;;;;;17.48;5.50;;;;;;;4.92;54.31;100585.91;124400;1098;104797;-79
2022/04/13 04:01:28;;;;;;;11.73;4.63;;;;;;;4.94;54.51;100605.12;123778;1099;104239;-78
2022/04/13 04:04:04;;;;;;;16.23;5.10;;;;;;;4.94;54.11;100610.33;123778;1099;104252;-77
2022/04/13 04:06:38;;;;;;;17.60;5.70;;;;;;;4.94;54.11;100605.12;123731;1098;104364;-80
2022/04/13 04:09:13;;;;;;;12.93;5.13;;;;;;;4.95;54.61;100604.30;124300;1097;104297;-81
2022/04/13 04:11:46;;;;;;;15.43;5.33;;;;;;;4.97;54.34;100601.78;123808;1099;104357;-80
2022/04/13 04:14:20;;;;;;;12.33;4.97;;;;;;;4.97;54.55;100597.50;123599;1099;104284;-78
2022/04/13 04:16:52;;;;;;;;;;;;;;;4.98;54.31;100607.08;123492;1099;104366;-77
2022/04/13 04:19:24;;;;;;;13.27;4.80;;;;;;;5.01;54.59;100606.37;123429;1099;104310;-77
2022/04/13 04:22:01;;;;;;;17.83;5.10;;;;;;;5.01;54.44;100606.37;123496;1099;104364;-77
2022/04/13 04:24:36;;;;;;;19.77;5.30;;;;;;;5.03;54.52;100605.67;123630;1099;104291;-79
2022/04/13 04:27:08;;;;;;;13.90;5.03;;;;;;;5.05;54.19;100621.37;123551;1099;104389;-78
2022/04/13 04:29:42;;;;;;;15.17;5.63;;;;;;;5.08;54.17;100607.63;123591;1099;104271;-78
2022/04/13 04:32:15;;;;;;;15.68;5.40;;;;;;;5.11;54.51;100605.21;123745;1099;104322;-75
2022/04/13 04:34:47;;;;;;;17.90;4.73;;;;;;;5.15;54.83;100609.80;123904;1099;104312;-76
2022/04/13 04:37:19;;;;;;;15.40;5.10;;;;;;;5.19;54.36;100609.19;123797;1099;104243;-76
2022/04/13 04:39:52;;;;;;;16.30;5.03;;;;;;;5.24;54.12;100604.25;123686;1099;104401;-76
2022/04/13 04:42:27;;;;;;;16.27;4.83;;;;;;;5.27;54.16;100607.92;123644;1099;104274;-77
2022/04/13 04:45:02;;;;;;;13.33;5.00;;;;;;;5.29;54.03;100592.40;123762;1099;104264;-77
2022/04/13 04:47:33;;;;;;;15.27;5.50;;;;;;;5.31;53.76;100589.05;123986;1098;104216;-76
2022/04/13 04:50:07;;;;;;;13.13;5.20;;;;;;;5.35;54.21;100601.45;123595;1098;104638;-77
2022/04/13 04:52:42;;;;;;;14.40;5.42;;;;;;;5.40;53.71;100606.92;123509;1098;104749;-78
2022/04/13 04:55:16;;;;;;;16.63;5.67;;;;;;;5.44;53.75;100610.59;123590;1099;104240;-77
2022/04/13 04:57:51;;;;;;;12.90;5.57;;;;;;;5.50;54.22;100618.75;123618;1099;104338;-77
2022/04/13 05:00:23;;;;;;;11.00;4.77;;;;;;;5.55;54.13;100612.13;123866;1099;104335;-76
2022/04/13 05:02:57;;;;;;;12.33;5.07;;;;;;;5.61;54.02;100603.75;123844;1098;120866;-78
2022/04/13 05:05:29;;;;;;;12.50;5.08;;;;;;;5.64;53.65;100610.05;123897;1099;104393;-81
2022/04/13 05:08:03;;;;;;;16.47;5.50;;;;;;;5.68;53.89;100608.52;123633;1099;104300;-79
2022/04/13 05:10:36;;;;;;;17.32;5.42;;;;;;;5.75;53.85;100601.14;124099;1097;104262;-79
2022/04/13 05:13:08;;;;;;;13.62;5.33;;;;;;;5.81;53.88;100599.69;123811;1099;104357;-76
2022/04/13 05:15:42;;;;;;;13.43;4.97;;;;;;;5.88;54.16;100599.23;123543;1099;104341;-77
2022/04/13 05:18:13;;;;;;;12.80;5.37;;;;;;;5.96;53.86;100603.15;123336;1099;104338;-77
2022/04/13 05:20:45;;;;;;;16.07;5.57;;;;;;;6.07;53.86;100596.85;123376;1099;104348;-78
2022/04/13 05:23:18;;;;;;;14.37;5.23;;;;;;;6.17;53.45;100594.75;123578;1099;104322;-77
2022/04/13 05:25:50;;;;;;;18.03;5.30;;;;;;;6.25;53.26;100589.16;123578;1097;104181;-79
2022/04/13 05:28:21;;;;;;;13.90;4.93;;;;;;;6.34;53.46;100586.14;123647;1098;104360;-77
2022/04/13 05:30:54;;;;;;;14.47;5.13;;;;;;;6.45;52.85;100582.42;123787;1097;104373;-79
2022/04/13 05:33:27;;;;;;;14.37;4.50;;;;;;;6.57;52.77;100579.55;123799;1099;104255;-78
2022/04/13 05:35:59;;;;;;;10.13;4.27;;;;;;;6.69;52.76;100576.70;123858;1099;104243;-78
2022/04/13 05:38:33;;;;;;;17.27;4.90;;;;;;;6.79;52.36;100581.60;124530;1099;104309;-79
2022/04/13 05:41:06;;;;;;;14.37;4.70;;;;;;;6.91;51.33;100580.44;123938;1099;104262;-77
2022/04/13 05:43:40;;;;;;;13.90;4.80;;;;;;;7.00;51.29;100579.19;124320;1099;104248;-78
2022/04/13 05:46:15;;;;;;;13.70;4.62;;;;;;;7.11;50.95;100586.68;124004;1099;104207;-77
2022/04/13 05:48:48;;;;;;;12.07;4.30;;;;;;;7.19;50.65;100570.57;123924;1099;104273;-79
2022/04/13 05:51:21;;;;;;;16.73;4.50;;;;;;;7.30;50.03;100585.89;124239;1099;104460;-80
2022/04/13 05:53:57;;;;;;;11.17;3.87;;;;;;;7.37;49.59;100574.95;123708;1096;104770;-79
2022/04/13 05:56:29;;;;;;;10.63;5.03;;;;;;;7.44;49.69;100565.69;123859;1099;104323;-77
2022/04/13 05:59:03;;;;;;;13.30;4.20;;;;;;;7.49;49.27;100574.64;123701;1098;104245;-79
2022/04/13 06:01:40;;;;;;;11.10;4.20;;;;;;;7.59;49.79;100560.30;124129;1098;104310;-80
2022/04/13 06:04:17;;;;;;;12.43;4.43;;;;;;;7.68;49.12;100569.51;124215;1099;104216;-80
2022/04/13 06:06:52;;;;;;;11.90;4.57;;;;;;;7.74;48.13;100561.97;123820;1099;104293;-77
2022/04/13 06:09:27;;;;;;;20.53;4.37;;;;;;;7.81;48.28;100563.14;123769;1099;104213;-77
2022/04/13 06:12:26;;;;;;;15.37;3.90;;;;;;;7.91;48.68;100554.91;123888;1099;104331;-79
2022/04/13 06:15:05;;;;;;;13.53;4.23;;;;;;;7.99;48.28;100536.09;123988;1099;111918;-78
2022/04/13 06:17:42;;;;;;;9.73;3.87;;;;;;;8.06;48.42;100541.67;124164;1099;102803;-77
2022/04/13 06:20:16;;;;;;;11.90;3.80;;;;;;;8.14;47.34;100555.09;124095;1099;104271;-77
2022/04/13 06:22:52;;;;;;;9.50;3.33;;;;;;;8.20;46.35;100544.92;124089;1099;104626;-79
2022/04/13 06:25:24;;;;;;;11.40;4.00;;;;;;;8.27;46.80;100539.16;124177;1099;104338;-79
2022/04/13 06:27:58;;;;;;;14.70;4.00;;;;;;;8.38;47.17;100528.28;124657;1099;104262;-80
2022/04/13 06:30:33;;;;;;;10.80;3.53;;;;;;;8.50;46.70;100535.83;124530;1099;104633;-80
2022/04/13 06:33:11;;;;;;;15.40;3.80;;;;;;;8.59;46.51;100537.12;124143;1099;104296;-79
2022/04/13 06:35:47;;;;;;;11.83;3.67;;;;;;;8.70;45.94;100541.94;123649;1099;104772;-80
2022/04/13 06:38:22;;;;;;;14.77;4.10;;;;;;;8.80;45.42;100524.09;123951;1099;104265;-79
2022/04/13 06:40:58;;;;;;;13.07;3.97;;;;;;;8.91;46.13;100518.41;124507;1099;104325;-79
2022/04/13 06:43:32;;;;;;;11.93;3.53;;;;;;;9.01;45.69;100525.83;123970;1099;104345;-79
2022/04/13 06:46:19;;;;;;;7.20;3.00;;;;;;;9.12;44.08;100534.14;124065;1099;104316;-81
2022/04/13 06:48:55;;;;;;;8.83;3.13;;;;;;;9.25;43.52;100525.95;124255;1099;104271;-79
2022/04/13 06:51:30;;;;;;;8.60;3.17;;;;;;;9.37;44.78;100528.19;124875;1099;102251;-79
2022/04/13 06:54:05;;;;;;;11.87;3.80;;;;;;;9.48;43.56;100518.16;124587;1099;104360;-79
2022/04/13 06:56:41;;;;;;;12.43;3.27;;;;;;;9.60;43.25;100518.64;124210;1099;104325;-82
2022/04/13 06:59:21;;;;;;;7.93;2.97;;;;;;;9.74;42.99;100506.09;124189;1099;104343;-80
2022/04/13 07:01:59;;;;;;;6.87;3.00;;;;;;;9.88;42.80;100512.75;123830;1099;104300;-80
2022/04/13 07:04:51;;;;;;;9.37;2.90;;;;;;;10.05;41.67;100513.41;124018;1099;104635;-79
2022/04/13 07:07:43;;;;;;;13.77;3.23;;;;;;;10.19;42.27;100532.28;124510;1099;111738;-78
2022/04/13 07:10:16;;;;;;;8.10;3.00;;;;;;;10.34;41.54;100516.23;124367;1099;104214;-79
2022/04/13 07:12:58;;;;;;;10.57;2.93;;;;;;;10.49;42.60;100507.16;123855;1099;104306;-80
2022/04/13 07:15:43;;;;;;;6.60;2.73;;;;;;;10.63;40.54;100505.00;124117;1099;104220;-80
2022/04/13 07:18:31;;;;;;;8.65;3.05;;;;;;;10.79;41.52;100484.60;124296;1098;104313;-80
2022/04/13 07:21:14;;;;;;;8.88;3.00;;;;;;;10.95;40.79;100499.17;123963;1099;105092;-79
2022/04/13 07:24:12;;;;;;;16.23;3.13;;;;;;;11.14;38.36;100519.06;124665;1099;104259;-78
2022/04/13 07:26:46;;;;;;;8.85;2.55;;;;;;;11.40;38.79;100490.11;124693;1099;104664;-79
2022/04/13 07:29:31;;;;;;;9.00;2.80;;;;;;;11.65;37.91;100493.52;124134;1099;104229;-79
2022/04/13 07:32:06;;;;;;;6.33;2.37;;;;;;;11.85;36.45;100495.02;124062;1099;104325;-78
2022/04/13 07:34:44;;;;;;;8.77;2.57;;;;;;;11.99;36.09;100484.07;124275;1099;104329;-78
2022/04/13 07:37:31;;;;;;;9.43;2.23;;;;;;;12.15;35.74;100481.02;124346;1098;104469;-78
2022/04/13 07:40:11;;;;;;;9.50;2.17;;;;;;;12.20;36.69;100476.81;123855;1099;104260;-78
2022/04/13 07:42:45;;;;;;;7.53;2.07;;;;;;;12.16;36.56;100459.14;123906;1098;104456;-77
2022/04/13 07:45:23;;;;;;;9.93;2.07;;;;;;;12.11;33.59;100501.96;123943;1099;104229;-78
2022/04/13 07:47:57;;;;;;;13.23;2.13;;;;;;;12.07;34.28;100487.81;123969;1099;104644;-80
2022/04/13 07:50:44;;;;;;;7.30;2.23;;;;;;;12.13;34.94;100489.73;124873;1099;104293;-80
2022/04/13 07:53:18;;;;;;;4.33;1.97;;;;;;;12.09;34.21;100486.14;124767;1097;104321;-79
2022/04/13 07:55:57;;;;;;;10.53;2.90;;;;;;;12.11;34.04;100488.81;124077;1099;104370;-81
2022/04/13 07:58:35;;;;;;;12.00;2.65;;;;;;;12.17;34.28;100504.74;124399;1099;104264;-79
2022/04/13 08:01:12;;;;;;;6.27;2.67;;;;;;;12.13;33.59;100501.14;124271;1099;104374;-78
2022/04/13 08:03:57;;;;;;;7.13;2.93;;;;;;;12.18;34.70;100489.00;123866;1099;104232;-78
2022/04/13 08:06:41;;;;;;;8.63;2.50;;;;;;;12.14;33.86;100486.23;123688;1099;104424;-77
2022/04/13 08:09:13;;;;;;;9.97;2.53;;;;;;;12.01;33.29;100474.48;123642;1097;109970;-78
2022/04/13 08:11:54;;;;;;;8.28;2.30;;;;;;;11.98;33.24;100479.64;124283;1099;104264;-81
2022/04/13 08:14:33;;;;;;;8.33;2.20;;;;;;;12.02;33.42;100479.78;123908;1099;104351;-79
2022/04/13 08:17:17;;;;;;;7.03;2.00;;;;;;;11.93;33.52;100445.33;123963;1099;104265;-79
2022/04/13 08:19:50;;;;;;;9.00;2.40;;;;;;;12.01;33.18;100458.70;123729;1099;104315;-79
2022/04/13 08:22:31;;;;;;;5.83;2.13;;;;;;;11.99;32.84;100473.55;123879;1099;104262;-77
2022/04/13 08:25:07;;;;;;;8.95;2.40;;;;;;;12.02;33.17;100468.38;124227;1097;104297;-77
2022/04/13 08:27:38;;;;;;;8.77;2.27;;;;;;;12.14;33.68;100463.48;124461;1098;104232;-78
2022/04/13 08:30:11;;;;;;;7.43;2.07;;;;;;;12.26;33.16;100464.67;124023;1099;104253;-77
2022/04/13 08:32:44;;;;;;;4.50;2.40;;;;;;;12.33;32.35;100479.79;123981;1099;104638;-77
2022/04/13 08:35:19;;;;;;;3.90;1.77;;;;;;;12.25;31.21;100454.98;123780;1099;104909;-78
2022/04/13 08:37:54;;;;;;;8.77;2.40;;;;;;;12.28;31.63;100476.11;123692;1099;104347;-77
2022/04/13 08:40:28;;;;;;;6.60;1.97;;;;;;;12.29;31.60;100470.89;123604;1097;104239;-79
2022/04/13 08:43:09;;;;;;;7.55;2.15;;;;;;;12.29;32.01;100464.75;123673;1099;104223;-79
2022/04/13 08:46:07;;;;;;;6.80;2.03;;;;;;;12.38;31.28;100481.68;123821;1099;104236;-79
2022/04/13 08:48:46;;;;;;;8.03;2.10;;;;;;;12.40;31.04;100458.04;123619;1098;104393;-78
2022/04/13 08:51:20;;;;;;;6.93;1.87;;;;;;;12.32;30.61;100475.36;124096;1097;104386;-78
2022/04/13 08:54:05;;;;;;;4.70;1.90;;;;;;;12.37;30.72;100474.66;123738;1099;104220;-77
2022/04/13 08:56:43;;;;;;;11.70;1.80;;;;;;;12.32;30.88;100470.10;123932;1098;104300;-76
2022/04/13 08:59:27;;;;;;;6.33;1.97;;;;;;;12.30;30.77;100453.39;124085;1099;104328;-76
2022/04/13 09:02:24;;;;;;;7.53;2.20;;;;;;;12.40;31.18;100456.32;123855;1099;104380;-78
2022/04/13 09:05:15;;;;;;;;;;;;;;;;;;;;;
2022/04/13 09:08:05;;;;;;;10.47;2.50;;;;;;;12.56;31.29;100443.58;124550;1099;104191;-77
2022/04/13 09:10:41;;;;;;;11.30;2.00;;;;;;;12.56;30.87;100469.91;125370;1099;104335;-76
2022/04/13 09:13:24;;;;;;;7.63;2.27;;;;;;;12.65;31.02;100454.33;124813;1099;104392;-77
2022/04/13 09:15:58;;;;;;;9.70;2.27;;;;;;;12.68;30.59;100449.14;124576;1099;104392;-77
2022/04/13 09:18:30;;;;;;;13.03;2.20;;;;;;;12.75;30.22;100437.93;124847;1099;104208;-77
2022/04/13 09:21:08;;;;;;;9.97;2.00;;;;;;;12.90;31.13;100428.62;124732;1099;104334;-77
2022/04/13 09:23:48;;;;;;;9.90;2.20;;;;;;;13.04;30.39;100431.61;124905;1098;104328;-77
2022/04/13 09:26:45;;;;;;;7.50;2.33;;;;;;;13.12;29.70;100427.44;124433;1099;104261;-78
2022/04/13 09:29:21;;;;;;;10.27;1.90;;;;;;;13.19;29.75;100446.91;124634;1099;104418;-77
2022/04/13 09:31:54;;;;;;;5.97;2.10;;;;;;;13.19;29.12;100441.64;124003;1099;104235;-78
2022/04/13 09:34:27;;;;;;;9.67;2.03;;;;;;;13.18;29.50;100426.68;124275;1099;104322;-77
2022/04/13 09:37:03;;;;;;;12.87;2.27;;;;;;;13.28;28.97;100436.59;124077;1099;104321;-78
2022/04/13 09:39:46;;;;;;;8.77;1.93;;;;;;;13.33;29.26;100428.80;124092;1099;104257;-78
2022/04/13 09:42:28;;;;;;;9.67;2.30;;;;;;;13.26;27.56;100439.19;124059;1098;104162;-77
2022/04/13 09:45:03;;;;;;;7.97;2.10;;;;;;;13.22;26.88;100436.45;124024;1099;104361;-77
2022/04/13 09:47:38;;;;;;;8.80;1.80;;;;;;;13.18;27.77;100437.22;123813;1099;104316;-78
2022/04/13 09:50:24;;;;;;;10.47;1.90;;;;;;;13.26;27.88;100427.73;123689;1099;104194;-79
2022/04/13 09:52:58;;;;;;;5.35;1.50;;;;;;;13.28;27.58;100436.59;123655;1099;104304;-78
2022/04/13 09:55:37;;;;;;;11.50;1.90;;;;;;;13.36;28.15;100435.05;123690;1098;104386;-79
2022/04/13 09:58:13;;;;;;;12.43;2.80;;;;;;;13.42;28.84;100418.50;123586;1099;104267;-77
2022/04/13 10:00:53;;;;;;;8.07;2.03;;;;;;;13.45;28.17;100435.27;124939;1099;104239;-79
2022/04/13 10:03:33;;;;;;;7.47;1.87;;;;;;;13.34;26.86;100425.32;124250;1099;104191;-78
2022/04/13 10:06:06;;;;;;;14.70;2.07;;;;;;;13.34;27.62;100446.40;124658;1099;104163;-77
2022/04/13 10:08:49;;;;;;;9.27;1.83;;;;;;;13.42;26.72;100426.41;123962;1099;104242;-76
2022/04/13 10:11:40;;;;;;;9.30;1.83;;;;;;;13.46;27.21;100439.70;124048;1099;104236;-77
2022/04/13 10:14:25;;;;;;;8.57;1.80;;;;;;;13.57;27.76;100418.85;124372;1099;104156;-78
2022/04/13 10:17:06;;;;;;;10.48;1.62;;;;;;;13.47;26.60;100482.75;124491;1098;104383;-78
2022/04/13 10:19:57;;;;;;;10.10;2.63;;;;;;;13.47;27.20;100427.39;124418;1099;104258;-77
2022/04/13 10:23:17;;;;;;;6.50;1.50;;;;;;;13.39;26.44;100450.94;124556;1099;104405;-77
2022/04/13 10:26:12;;;;;;;5.50;1.53;;;;;;;13.49;27.08;100436.22;124564;1099;104325;-78
2022/04/13 10:29:19;;;;;;;3.73;1.70;;;;;;;13.46;26.78;100450.23;124591;1099;101916;-76
2022/04/13 10:32:08;;;;;;;7.07;1.73;;;;;;;13.40;26.15;100430.73;124611;1099;104325;-77
2022/04/13 10:35:19;;;;;;;5.58;1.55;;;;;;;13.36;26.56;100434.17;124234;1099;104608;-76
2022/04/13 10:38:06;;;;;;;5.37;1.60;;;;;;;13.30;26.56;100433.13;123993;1099;104418;-76
2022/04/13 10:40:41;;;;;;;11.87;2.03;;;;;;;13.41;26.69;100432.52;123433;1102;104211;-78
2022/04/13 10:43:16;;;;;;;13.93;2.07;;;;;;;13.41;26.73;100433.41;123603;1102;104356;-78
2022/04/13 10:46:16;;;;;;;11.30;2.07;;;;;;;13.37;26.61;100449.11;124023;1099;104221;-79
2022/04/13 10:48:59;;;;;;;8.73;2.00;;;;;;;13.31;26.84;100441.94;123731;1102;104418;-78
2022/04/13 10:51:42;;;;;;;13.00;2.20;;;;;;;13.34;26.93;100431.50;123616;1099;104386;-77
2022/04/13 10:54:44;;;;;;;11.03;2.00;;;;;;;13.28;26.47;100431.33;123470;1098;104418;-78
2022/04/13 10:57:36;;;;;;;11.73;1.80;;;;;;;13.20;27.01;100422.33;123468;1099;104205;-78
2022/04/13 11:00:19;;;;;;;4.50;1.50;;;;;;;13.12;27.07;100430.95;124295;1099;104240;-78
2022/04/13 11:03:15;;;;;;;7.33;2.57;;;;;;;13.10;27.04;100434.39;123901;1098;118563;-78
2022/04/13 11:06:10;;;;;;;10.03;2.10;;;;;;;13.02;27.44;100433.33;123978;1099;104466;-75
2022/04/13 11:08:55;;;;;;;8.77;2.00;;;;;;;12.92;26.74;100437.48;123741;1099;104928;-77
2022/04/13 11:11:40;;;;;;;9.75;2.00;;;;;;;12.81;27.22;100445.11;123745;1099;104437;-78
2022/04/13 11:14:26;;;;;;;14.17;2.60;;;;;;;12.75;26.88;100439.69;124144;1099;104239;-77
2022/04/13 11:17:30;;;;;;;13.43;2.40;;;;;;;12.70;26.95;100433.39;124090;1099;104265;-76
2022/04/13 11:20:31;;;;;;;10.23;1.97;;;;;;;12.77;27.20;100432.70;123957;1098;104342;-76
2022/04/13 11:23:13;;;;;;;13.90;2.60;;;;;;;12.85;27.68;100427.63;123767;1098;104769;-77
2022/04/13 11:25:58;;;;;;;10.57;2.20;;;;;;;12.95;27.33;100405.95;123641;1099;104288;-76
2022/04/13 11:28:39;;;;;;;13.53;2.17;;;;;;;13.07;27.54;100410.61;123490;1099;104288;-77
2022/04/13 11:31:16;;;;;;;9.33;2.30;;;;;;;13.15;27.32;100413.43;123862;1099;104242;-77
2022/04/13 11:33:58;;;;;;;12.43;2.63;;;;;;;13.23;27.71;100411.86;123680;1099;104725;-77
2022/04/13 11:36:31;;;;;;;11.40;2.13;;;;;;;13.20;26.47;100410.06;123630;1099;104252;-77
2022/04/13 11:39:37;;;;;;;15.70;2.43;;;;;;;13.30;27.18;100413.80;123715;1099;104191;-78
2022/04/13 11:43:03;;;;;;;15.63;2.27;;;;;;;13.40;27.31;100396.47;123820;1098;104332;-78
2022/04/13 11:45:55;;;;;;;16.45;2.45;;;;;;;13.45;27.01;100414.18;123705;1099;119999;-78
2022/04/13 11:48:37;;;;;;;17.17;2.50;;;;;;;13.41;26.79;100396.50;123491;1099;104315;-76
2022/04/13 11:51:48;;;;;;;14.17;2.47;;;;;;;13.43;27.03;100399.17;123695;1099;104316;-76
2022/04/13 11:54:43;;;;;;;16.13;2.13;;;;;;;13.41;27.10;100398.27;123486;1099;104446;-78
2022/04/13 11:58:02;;;;;;;10.90;1.93;;;;;;;13.40;27.04;100385.92;123621;1099;104265;-76